Time;durP1;ratioP1;P1;durP2;ratioP2;P2;SDS_P1;SDS_P2;PMS_P1;PMS_P2;Temp;Humidity;BMP_temperature;BMP_pressure;BME280_temperature;BME280_humidity;BME280_pressure;Samples;Min_cycle;Max_cycle;Signal;HPM_P1;HPM_P2
2022/09/09 00:00:47;;;;;;;1.93;0.90;;;;;;;13.58;100.00;99185.56;4943051;28;20236;-95
2022/09/09 00:03:19;;;;;;;1.90;0.90;;;;;;;13.53;100.00;99177.44;4942585;28;20290;-95
2022/09/09 00:06:03;;;;;;;1.17;0.70;;;;;;;13.50;100.00;99186.00;4958749;28;20252;-95
2022/09/09 00:08:42;;;;;;;1.00;0.90;;;;;;;13.54;100.00;99180.94;4947405;29;20237;-96
2022/09/09 00:11:12;;;;;;;0.90;0.80;;;;;;;13.40;100.00;99175.09;4953303;29;20329;-95
2022/09/09 00:13:49;;;;;;;1.13;0.80;;;;;;;13.32;100.00;99172.03;4923839;29;20232;-94
2022/09/09 00:16:24;;;;;;;1.03;0.80;;;;;;;13.31;100.00;99173.09;4939041;29;20248;-95
2022/09/09 00:19:21;;;;;;;1.07;0.97;;;;;;;13.31;100.00;99179.28;4940300;28;20760;-95
2022/09/09 00:22:01;;;;;;;0.73;0.73;;;;;;;13.21;100.00;99177.28;4941117;28;20270;-95
2022/09/09 00:24:31;;;;;;;0.80;0.80;;;;;;;13.16;100.00;99174.50;4933206;28;20260;-94
2022/09/09 00:27:06;;;;;;;0.70;0.70;;;;;;;13.08;100.00;99172.22;4940438;29;20237;-95
2022/09/09 00:29:39;;;;;;;1.37;0.97;;;;;;;13.05;100.00;99166.53;4935255;28;20227;-95
2022/09/09 00:32:15;;;;;;;1.27;0.97;;;;;;;13.07;100.00;99167.88;4940137;28;20759;-95
2022/09/09 00:35:25;;;;;;;0.80;0.73;;;;;;;13.03;100.00;99166.75;4948930;28;20261;-95
2022/09/09 00:37:55;;;;;;;0.97;0.80;;;;;;;13.03;100.00;99171.31;4903596;29;20313;-95
2022/09/09 00:40:28;;;;;;;0.90;0.80;;;;;;;13.02;100.00;99164.31;4951690;28;20231;-95
2022/09/09 00:43:34;;;;;;;0.87;0.87;;;;;;;13.03;100.00;99166.75;4941956;28;20313;-94
2022/09/09 00:46:34;;;;;;;2.93;1.00;;;;;;;12.99;100.00;99186.31;4953058;28;20234;-95
2022/09/09 00:49:31;;;;;;;1.07;1.00;;;;;;;12.97;100.00;99183.88;4952343;28;20243;-94
2022/09/09 00:52:42;;;;;;;1.13;0.90;;;;;;;12.96;100.00;99182.25;4931308;29;20236;-95
2022/09/09 00:55:40;;;;;;;0.83;0.83;;;;;;;12.96;100.00;99187.63;4943635;28;20720;-95
2022/09/09 00:58:08;;;;;;;1.23;0.80;;;;;;;12.92;100.00;99193.75;4944162;28;20249;-93
2022/09/09 01:00:44;;;;;;;1.00;0.80;;;;;;;12.94;100.00;99205.88;4942432;28;20234;-94
2022/09/09 01:03:32;;;;;;;0.80;0.80;;;;;;;13.02;100.00;99207.31;4939164;29;20329;-94
2022/09/09 01:06:25;;;;;;;0.80;0.80;;;;;;;13.11;100.00;99211.28;4938704;29;20249;-93
2022/09/09 01:09:17;;;;;;;2.30;1.00;;;;;;;13.09;100.00;99216.06;4941840;28;20234;-94
2022/09/09 01:12:14;;;;;;;3.23;0.90;;;;;;;13.09;100.00;99214.19;4954632;28;20247;-94
2022/09/09 01:14:48;;;;;;;1.13;0.93;;;;;;;13.04;100.00;99214.09;4952195;28;20240;-95
2022/09/09 01:17:24;;;;;;;1.00;1.00;;;;;;;13.05;100.00;99221.13;4934079;28;20788;-95
2022/09/09 01:20:07;;;;;;;0.90;0.80;;;;;;;13.03;100.00;99220.53;4956546;28;20230;-94
2022/09/09 01:23:22;;;;;;;1.97;0.83;;;;;;;13.00;100.00;99218.34;4958215;28;20254;-94
2022/09/09 01:26:05;;;;;;;1.07;0.90;;;;;;;13.01;100.00;99216.47;4934087;29;20354;-95
2022/09/09 01:28:35;;;;;;;0.80;0.80;;;;;;;13.03;100.00;99219.72;4931267;28;20238;-94
2022/09/09 01:31:09;;;;;;;1.30;0.90;;;;;;;13.03;100.00;99217.03;4942253;28;20325;-94
2022/09/09 01:33:41;;;;;;;1.13;0.90;;;;;;;12.99;100.00;99221.28;4940883;28;20237;-94
2022/09/09 01:36:22;;;;;;;0.80;0.80;;;;;;;12.96;100.00;99221.78;4941668;28;20236;-95
2022/09/09 01:38:52;;;;;;;1.30;1.00;;;;;;;13.00;100.00;99226.41;4944640;28;20232;-95
2022/09/09 01:41:19;;;;;;;0.90;0.90;;;;;;;13.00;100.00;99222.91;4941816;28;20223;-95
2022/09/09 01:43:57;;;;;;;1.00;0.90;;;;;;;12.94;100.00;99219.31;4961795;28;20282;-94
2022/09/09 01:46:24;;;;;;;1.50;0.90;;;;;;;12.93;100.00;99214.19;4941711;28;20227;-94
2022/09/09 01:48:53;;;;;;;1.93;0.90;;;;;;;12.93;100.00;99219.56;4936395;28;20227;-95
2022/09/09 01:51:20;;;;;;;1.03;0.90;;;;;;;12.91;100.00;99213.63;4948893;28;20282;-94
2022/09/09 01:53:48;;;;;;;2.43;1.10;;;;;;;12.92;100.00;99210.69;4926918;28;20931;-94
2022/09/09 01:56:31;;;;;;;1.00;0.90;;;;;;;12.93;100.00;99215.00;4941475;28;20258;-95
2022/09/09 01:59:10;;;;;;;1.23;0.90;;;;;;;12.95;100.00;99207.50;4938016;28;20227;-94
2022/09/09 02:01:49;;;;;;;3.03;1.03;;;;;;;13.00;100.00;99212.16;4933660;29;20240;-94
2022/09/09 02:04:40;;;;;;;1.70;1.00;;;;;;;13.01;100.00;99211.09;4947038;29;20235;-94
2022/09/09 02:07:31;;;;;;;0.83;0.77;;;;;;;13.03;100.00;99209.78;4929090;28;20323;-94
2022/09/09 02:10:27;;;;;;;2.20;0.80;;;;;;;13.04;100.00;99213.28;4928434;28;21334;-94
2022/09/09 02:13:13;;;;;;;0.87;0.80;;;;;;;13.03;100.00;99217.03;4897897;29;20291;-95
2022/09/09 02:15:46;;;;;;;1.03;0.90;;;;;;;13.02;100.00;99216.22;4927387;28;20250;-95
2022/09/09 02:18:15;;;;;;;1.47;0.97;;;;;;;13.05;100.00;99206.84;4943690;28;20232;-94
2022/09/09 02:20:45;;;;;;;0.87;0.87;;;;;;;13.04;100.00;99203.34;4926395;28;20237;-95
2022/09/09 02:23:12;;;;;;;1.23;0.83;;;;;;;13.14;100.00;99205.41;4939427;28;20229;-94
2022/09/09 02:25:41;;;;;;;1.90;1.10;;;;;;;13.11;100.00;99203.22;4932706;28;20225;-95
2022/09/09 02:28:18;;;;;;;1.83;0.90;;;;;;;13.16;100.00;99200.59;4920925;28;20238;-95
2022/09/09 02:30:46;;;;;;;1.07;0.97;;;;;;;13.12;100.00;99200.28;4927228;28;20231;-95
2022/09/09 02:33:15;;;;;;;1.10;1.00;;;;;;;13.08;100.00;99209.03;4927302;29;20274;-94
2022/09/09 02:35:46;;;;;;;1.03;0.90;;;;;;;13.06;100.00;99212.00;4950894;28;20305;-94
2022/09/09 02:38:17;;;;;;;0.97;0.90;;;;;;;13.03;100.00;99211.66;4936937;28;20239;-94
2022/09/09 02:40:55;;;;;;;1.77;0.90;;;;;;;12.98;100.00;99214.25;4931650;28;20252;-94
2022/09/09 02:43:22;;;;;;;2.80;1.10;;;;;;;12.98;100.00;99219.63;4959357;28;20265;-93
2022/09/09 02:46:10;;;;;;;2.27;0.90;;;;;;;12.92;100.00;99221.47;4938116;29;20235;-93
2022/09/09 02:48:59;;;;;;;1.37;1.13;;;;;;;12.93;100.00;99219.56;4957729;28;20335;-93
2022/09/09 02:51:47;;;;;;;1.50;0.90;;;;;;;12.87;100.00;99221.38;4928131;28;20234;-94
2022/09/09 02:54:16;;;;;;;1.40;1.10;;;;;;;12.86;100.00;99224.28;4924032;29;20258;-94
2022/09/09 02:56:50;;;;;;;1.20;1.00;;;;;;;12.89;100.00;99219.25;4941531;29;20224;-95
2022/09/09 02:59:18;;;;;;;1.17;1.07;;;;;;;12.85;100.00;99220.78;4909768;29;20720;-94
2022/09/09 03:01:48;;;;;;;1.50;1.10;;;;;;;12.79;100.00;99216.38;4928430;28;20262;-95
2022/09/09 03:04:14;;;;;;;1.07;1.00;;;;;;;12.79;100.00;99219.06;4935615;28;20230;-95
2022/09/09 03:06:41;;;;;;;1.43;1.10;;;;;;;12.80;100.00;99213.44;4942357;28;20241;-95
2022/09/09 03:09:16;;;;;;;2.10;1.10;;;;;;;12.80;100.00;99205.38;4937811;29;20228;-94
2022/09/09 03:11:43;;;;;;;1.40;1.13;;;;;;;12.79;100.00;99203.75;4937388;29;20243;-93
2022/09/09 03:14:11;;;;;;;1.20;1.10;;;;;;;12.82;100.00;99204.34;4935657;29;20231;-95
2022/09/09 03:16:39;;;;;;;1.67;1.33;;;;;;;12.82;100.00;99207.84;4940893;29;20236;-94
2022/09/09 03:19:06;;;;;;;1.00;0.90;;;;;;;12.78;100.00;99198.63;4940483;28;20278;-95
2022/09/09 03:21:33;;;;;;;2.33;1.07;;;;;;;12.80;100.00;99191.94;4959722;28;20254;-95
2022/09/09 03:24:00;;;;;;;1.23;1.00;;;;;;;12.82;100.00;99198.97;4943805;28;20318;-95
2022/09/09 03:26:27;;;;;;;1.17;1.07;;;;;;;12.83;100.00;99201.38;4926684;29;20609;-94
2022/09/09 03:28:54;;;;;;;1.30;1.20;;;;;;;12.83;100.00;99205.97;4925471;29;20223;-95
2022/09/09 03:31:22;;;;;;;2.37;1.20;;;;;;;12.83;100.00;99203.28;4933524;28;20274;-94
2022/09/09 03:33:50;;;;;;;1.20;0.90;;;;;;;12.85;100.00;99201.97;4909771;29;20227;-94
2022/09/09 03:36:19;;;;;;;2.70;1.20;;;;;;;12.86;100.00;99198.22;4935497;29;20230;-94
2022/09/09 03:38:45;;;;;;;3.07;1.17;;;;;;;12.85;100.00;99191.22;4924999;29;20204;-95
2022/09/09 03:41:12;;;;;;;1.60;1.30;;;;;;;12.84;100.00;99196.81;4940059;29;20236;-94
2022/09/09 03:43:39;;;;;;;1.07;1.00;;;;;;;12.86;100.00;99190.16;4934661;29;20287;-95
2022/09/09 03:46:06;;;;;;;1.63;0.90;;;;;;;12.85;100.00;99187.72;4918408;29;20237;-94
2022/09/09 03:48:33;;;;;;;1.33;1.03;;;;;;;12.87;100.00;99188.28;4939730;28;20230;-94
2022/09/09 03:51:00;;;;;;;0.80;0.80;;;;;;;12.91;100.00;99184.06;4959151;28;20245;-95
2022/09/09 03:53:30;;;;;;;1.30;1.20;;;;;;;12.95;100.00;99194.06;4893728;29;20606;-93
2022/09/09 03:55:59;;;;;;;1.43;0.90;;;;;;;12.97;100.00;99201.91;4919230;28;20242;-94
2022/09/09 03:58:28;;;;;;;1.47;1.00;;;;;;;12.97;100.00;99196.53;4943470;28;20234;-94
2022/09/09 04:01:05;;;;;;;0.90;0.90;;;;;;;13.04;100.00;99205.22;4925448;29;20286;-95
2022/09/09 04:03:32;;;;;;;1.50;1.03;;;;;;;13.07;100.00;99213.59;4922804;28;20284;-95
2022/09/09 04:06:01;;;;;;;1.77;1.10;;;;;;;13.08;100.00;99215.25;4955635;28;20255;-93
2022/09/09 04:08:31;;;;;;;2.03;1.10;;;;;;;13.08;100.00;99225.19;4963562;28;20290;-94
2022/09/09 04:11:01;;;;;;;2.67;1.30;;;;;;;13.04;100.00;99229.44;4944987;28;20234;-94
2022/09/09 04:13:28;;;;;;;2.20;1.00;;;;;;;13.03;100.00;99241.22;4935830;28;20740;-94
2022/09/09 04:15:58;;;;;;;2.30;1.10;;;;;;;12.99;100.00;99245.47;4947256;29;20229;-94
2022/09/09 04:18:25;;;;;;;1.67;1.13;;;;;;;12.92;100.00;99236.78;4912661;28;20235;-94
2022/09/09 04:20:53;;;;;;;2.37;1.10;;;;;;;12.90;100.00;99237.00;4940040;28;20243;-95
2022/09/09 04:23:23;;;;;;;3.23;1.20;;;;;;;12.81;100.00;99227.72;4919446;28;20243;-95
2022/09/09 04:25:54;;;;;;;2.60;1.30;;;;;;;12.78;100.00;99231.69;4969716;28;20235;-94
2022/09/09 04:28:24;;;;;;;2.27;1.20;;;;;;;12.78;100.00;99230.91;4939756;28;20239;-94
2022/09/09 04:30:52;;;;;;;2.93;1.30;;;;;;;12.79;100.00;99230.63;4954344;29;20219;-94
2022/09/09 04:33:19;;;;;;;3.07;1.40;;;;;;;12.76;100.00;99224.94;4938930;28;20235;-95
2022/09/09 04:35:49;;;;;;;1.93;1.30;;;;;;;12.67;100.00;99240.66;4938696;29;20246;-95
2022/09/09 04:38:18;;;;;;;3.00;1.40;;;;;;;12.61;100.00;99238.94;4940983;28;20233;-95
2022/09/09 04:40:49;;;;;;;1.57;1.40;;;;;;;12.62;100.00;99239.75;4925991;29;20318;-94
2022/09/09 04:43:15;;;;;;;3.27;1.40;;;;;;;12.61;100.00;99241.63;4931657;28;20326;-95
2022/09/09 04:45:43;;;;;;;2.13;1.60;;;;;;;12.64;100.00;99238.47;4921630;28;20290;-94
2022/09/09 04:48:10;;;;;;;1.53;1.43;;;;;;;12.62;100.00;99243.25;4942516;29;20322;-94
2022/09/09 04:50:37;;;;;;;1.67;1.30;;;;;;;12.60;100.00;99242.66;4933003;29;20724;-93
2022/09/09 04:53:04;;;;;;;3.00;1.60;;;;;;;12.66;100.00;99235.50;4917560;29;20238;-94
2022/09/09 04:55:34;;;;;;;2.93;1.90;;;;;;;12.70;100.00;99245.53;4922485;29;20237;-94
2022/09/09 04:58:05;;;;;;;2.20;1.50;;;;;;;12.67;100.00;99239.84;4936647;28;20238;-94
2022/09/09 05:00:33;;;;;;;3.20;1.97;;;;;;;12.70;100.00;99234.78;4935618;28;20288;-94
2022/09/09 05:03:05;;;;;;;3.57;2.10;;;;;;;12.75;100.00;99234.88;4938702;28;20265;-94
2022/09/09 05:05:36;;;;;;;3.60;2.03;;;;;;;12.83;100.00;99230.16;4942133;28;20229;-94
2022/09/09 05:08:06;;;;;;;2.00;1.60;;;;;;;12.88;100.00;99225.66;4917119;29;20719;-95
2022/09/09 05:10:34;;;;;;;2.00;1.80;;;;;;;12.94;100.00;99227.38;4947239;28;20208;-95
2022/09/09 05:13:01;;;;;;;2.37;1.90;;;;;;;12.97;100.00;99229.56;4922986;29;20262;-95
2022/09/09 05:15:29;;;;;;;1.87;1.70;;;;;;;13.06;100.00;99228.13;4934653;28;20236;-93
2022/09/09 05:18:00;;;;;;;2.20;2.00;;;;;;;13.15;100.00;99232.06;4944563;28;20238;-95
2022/09/09 05:20:29;;;;;;;3.93;2.13;;;;;;;13.39;100.00;99242.66;4962142;28;20249;-94
2022/09/09 05:22:56;;;;;;;3.30;2.10;;;;;;;13.57;100.00;99231.59;4954127;28;20322;-96
2022/09/09 05:25:27;;;;;;;3.23;2.30;;;;;;;13.73;100.00;99222.66;4957957;28;20231;-95
2022/09/09 05:27:55;;;;;;;1.73;1.63;;;;;;;13.96;100.00;99233.16;4940668;29;20239;-96
2022/09/09 05:30:22;;;;;;;2.80;2.00;;;;;;;14.22;100.00;99236.19;4941135;28;20235;-94
2022/09/09 05:32:50;;;;;;;4.93;1.90;;;;;;;14.41;100.00;99232.09;4930000;28;20301;-94
2022/09/09 05:35:19;;;;;;;3.17;1.80;;;;;;;14.66;100.00;99239.59;4961358;28;20309;-95
2022/09/09 05:37:45;;;;;;;2.00;1.63;;;;;;;15.03;100.00;99247.75;4927046;29;20235;-95
2022/09/09 05:40:13;;;;;;;1.90;1.67;;;;;;;15.26;100.00;99248.22;4925429;29;20233;-95
2022/09/09 05:42:40;;;;;;;2.07;1.70;;;;;;;15.53;100.00;99255.44;4924253;29;20278;-95
2022/09/09 05:45:08;;;;;;;2.90;1.87;;;;;;;15.83;100.00;99256.44;4957605;28;20236;-95
2022/09/09 05:47:37;;;;;;;2.43;1.60;;;;;;;16.07;100.00;99264.09;4934807;29;20239;-95
2022/09/09 05:50:07;;;;;;;1.40;1.23;;;;;;;16.31;100.00;99259.88;4948747;28;20306;-95
2022/09/09 05:52:34;;;;;;;4.03;1.70;;;;;;;16.60;100.00;99260.25;4937928;28;20315;-95
2022/09/09 05:55:01;;;;;;;3.23;1.37;;;;;;;16.71;100.00;99257.28;4942157;29;20232;-96
2022/09/09 05:57:28;;;;;;;2.50;1.50;;;;;;;16.81;100.00;99255.66;4925513;29;20295;-96
2022/09/09 05:59:55;;;;;;;1.50;1.40;;;;;;;16.88;100.00;99251.63;4938080;28;20224;-95
2022/09/09 06:02:21;;;;;;;2.80;1.30;;;;;;;16.97;100.00;99254.63;4938284;29;20316;-95
2022/09/09 06:04:49;;;;;;;3.73;1.30;;;;;;;17.06;100.00;99244.88;4934103;28;20240;-96
2022/09/09 06:07:16;;;;;;;2.37;1.17;;;;;;;17.21;100.00;99246.75;4925469;28;20329;-93
2022/09/09 06:09:43;;;;;;;2.10;1.30;;;;;;;17.32;100.00;99246.47;4922280;29;20280;-95
2022/09/09 06:12:11;;;;;;;2.27;1.30;;;;;;;17.44;100.00;99244.31;4943488;28;20283;-95
2022/09/09 06:14:38;;;;;;;4.10;1.40;;;;;;;17.52;100.00;99248.34;4939951;28;20232;-95
2022/09/09 06:17:11;;;;;;;3.13;1.10;;;;;;;17.42;100.00;99234.81;4938900;28;20977;-94
2022/09/09 06:19:38;;;;;;;2.03;1.20;;;;;;;17.42;100.00;99234.81;4930575;28;20255;-94
2022/09/09 06:22:06;;;;;;;3.07;1.10;;;;;;;17.61;100.00;99233.19;4935788;28;20228;-95
2022/09/09 06:24:35;;;;;;;1.27;1.07;;;;;;;17.80;100.00;99236.94;4960316;28;20224;-94
2022/09/09 06:27:03;;;;;;;1.40;1.00;;;;;;;18.02;100.00;99241.97;4960118;28;20232;-95
2022/09/09 06:29:33;;;;;;;1.33;1.10;;;;;;;18.26;100.00;99236.72;4949527;28;20316;-95
2022/09/09 06:32:01;;;;;;;2.70;1.10;;;;;;;18.53;100.00;99229.00;4929512;28;20279;-94
2022/09/09 06:34:28;;;;;;;1.13;1.00;;;;;;;18.84;100.00;99240.47;4938378;28;20228;-96
2022/09/09 06:36:58;;;;;;;1.70;0.90;;;;;;;19.14;100.00;99234.78;4930629;28;20239;-93
2022/09/09 06:39:30;;;;;;;1.73;1.20;;;;;;;19.28;100.00;99238.47;4930268;28;20238;-93
2022/09/09 06:41:58;;;;;;;1.10;0.97;;;;;;;19.38;100.00;99251.13;4935966;28;20339;-93
2022/09/09 06:44:48;;;;;;;2.83;1.20;;;;;;;19.44;100.00;99243.78;4930475;28;20614;-93
2022/09/09 06:47:33;;;;;;;3.17;1.10;;;;;;;19.51;100.00;99245.06;4951926;29;20239;-93
2022/09/09 06:50:00;;;;;;;0.80;0.70;;;;;;;19.54;100.00;99241.78;4968549;28;20245;-93
2022/09/09 06:52:30;;;;;;;1.27;1.17;;;;;;;19.56;99.12;99238.75;4944181;28;20241;-92
2022/09/09 06:54:59;;;;;;;1.43;1.07;;;;;;;19.51;100.00;99233.38;4943934;28;20228;-93
2022/09/09 06:57:25;;;;;;;1.47;1.00;;;;;;;19.48;98.16;99232.06;4945682;29;20235;-93
2022/09/09 07:00:06;;;;;;;1.50;1.30;;;;;;;19.52;97.41;99221.41;4965705;28;20239;-93
2022/09/09 07:02:38;;;;;;;1.63;1.20;;;;;;;19.62;97.13;99224.03;4927428;28;20231;-93
2022/09/09 07:05:07;;;;;;;2.70;1.30;;;;;;;19.68;96.84;99234.56;4916666;29;20237;-93
2022/09/09 07:07:34;;;;;;;2.87;1.10;;;;;;;19.94;95.98;99243.25;4937376;28;20238;-93
2022/09/09 07:10:01;;;;;;;3.83;1.20;;;;;;;20.21;93.07;99246.16;4954711;28;20242;-92
2022/09/09 07:12:30;;;;;;;1.63;1.20;;;;;;;20.43;91.33;99253.00;4937195;28;20697;-93
2022/09/09 07:14:58;;;;;;;2.93;1.40;;;;;;;20.63;89.31;99255.41;4920709;28;20247;-92
2022/09/09 07:17:28;;;;;;;1.80;1.20;;;;;;;20.75;88.35;99253.06;4947401;28;20246;-93
2022/09/09 07:19:56;;;;;;;1.50;1.30;;;;;;;20.95;86.05;99252.75;4936552;29;20238;-94
2022/09/09 07:22:23;;;;;;;1.50;1.07;;;;;;;21.13;81.79;99251.16;4948172;29;20230;-94
2022/09/09 07:24:50;;;;;;;1.63;1.20;;;;;;;21.30;79.21;99253.31;4944225;29;20316;-93
2022/09/09 07:27:17;;;;;;;1.47;1.10;;;;;;;21.48;79.42;99250.53;4935579;28;20260;-92
2022/09/09 07:29:46;;;;;;;1.40;1.20;;;;;;;21.62;80.10;99260.63;4936553;28;20282;-94
2022/09/09 07:32:13;;;;;;;1.47;1.33;;;;;;;21.53;79.50;99260.53;4942664;28;20235;-93
2022/09/09 07:34:39;;;;;;;1.10;1.00;;;;;;;21.29;82.40;99255.22;4959352;28;20235;-93
2022/09/09 07:37:06;;;;;;;2.40;1.20;;;;;;;21.35;81.40;99245.84;4935740;28;20238;-93
2022/09/09 07:39:34;;;;;;;1.70;0.97;;;;;;;21.51;77.23;99244.47;4938110;29;20234;-94
2022/09/09 07:42:01;;;;;;;1.33;1.10;;;;;;;21.80;77.69;99237.94;4945183;28;20326;-90
2022/09/09 07:44:28;;;;;;;1.67;1.00;;;;;;;21.98;78.02;99250.69;4908658;29;20233;-94
2022/09/09 07:47:08;;;;;;;1.77;1.20;;;;;;;22.53;74.48;99246.00;4934202;28;20628;-94
2022/09/09 07:49:40;;;;;;;1.30;1.00;;;;;;;22.87;71.05;99241.94;4922141;28;20227;-94
2022/09/09 07:52:08;;;;;;;2.28;1.15;;;;;;;23.07;68.60;99252.41;4936752;29;20951;-94
2022/09/09 07:54:38;;;;;;;1.17;1.08;;;;;;;23.21;67.38;99250.41;4932903;29;20609;-93
2022/09/09 07:57:06;;;;;;;1.00;0.98;;;;;;;22.96;66.32;99261.94;4933404;28;20282;-93
2022/09/09 07:59:35;;;;;;;2.95;1.40;;;;;;;23.05;66.82;99265.56;4939563;28;20743;-94
2022/09/09 08:02:02;;;;;;;1.38;1.05;;;;;;;22.99;68.63;99259.41;4911890;29;20316;-94
2022/09/09 08:04:32;;;;;;;1.42;0.93;;;;;;;23.08;67.26;99262.22;4959459;28;20220;-94
2022/09/09 08:07:00;;;;;;;1.05;0.90;;;;;;;23.02;68.81;99260.72;4957127;28;20283;-93
2022/09/09 08:09:32;;;;;;;1.27;1.10;;;;;;;23.24;67.93;99256.03;4958978;28;20240;-94
2022/09/09 08:12:12;;;;;;;2.35;1.20;;;;;;;23.28;65.81;99261.72;4950282;28;20236;-94
2022/09/09 08:14:40;;;;;;;2.78;1.15;;;;;;;23.10;65.55;99252.56;4948696;28;20229;-95
2022/09/09 08:17:06;;;;;;;1.35;1.00;;;;;;;23.16;65.86;99247.78;4923869;28;20314;-93
2022/09/09 08:19:36;;;;;;;2.00;1.13;;;;;;;23.12;66.57;99246.81;4914738;29;20244;-94
2022/09/09 08:22:08;;;;;;;1.70;1.00;;;;;;;23.04;67.38;99242.91;4932597;28;20236;-94
2022/09/09 08:24:39;;;;;;;2.17;1.15;;;;;;;23.18;67.19;99248.31;4924135;29;20292;-94
2022/09/09 08:27:06;;;;;;;2.00;1.08;;;;;;;23.02;67.29;99249.78;4920092;29;20237;-94
2022/09/09 08:29:33;;;;;;;1.70;1.10;;;;;;;23.04;67.17;99248.38;4938930;29;20244;-94
2022/09/09 08:32:01;;;;;;;1.02;0.88;;;;;;;22.93;69.52;99248.91;4939290;29;20259;-94
2022/09/09 08:34:30;;;;;;;1.85;1.02;;;;;;;22.86;73.33;99262.22;4923275;29;20229;-95
2022/09/09 08:37:00;;;;;;;3.10;1.30;;;;;;;22.89;72.29;99253.38;4940330;29;20239;-95
2022/09/09 08:39:33;;;;;;;0.82;0.82;;;;;;;22.83;71.47;99252.69;4947810;28;20239;-94
2022/09/09 08:42:24;;;;;;;1.95;1.10;;;;;;;21.85;75.17;99252.28;4937100;28;20236;-94
2022/09/09 08:45:17;;;;;;;1.52;1.00;;;;;;;22.54;71.38;99249.50;4928601;28;20423;-95
2022/09/09 08:48:10;;;;;;;1.10;0.90;;;;;;;22.86;67.38;99246.63;4949503;29;20228;-94
2022/09/09 08:50:38;;;;;;;1.10;1.00;;;;;;;23.08;63.76;99246.63;4941543;28;20245;-94
2022/09/09 08:53:26;;;;;;;1.10;0.88;;;;;;;23.46;63.97;99249.81;4938440;29;20256;-94
2022/09/09 08:55:58;;;;;;;2.35;0.90;;;;;;;23.29;63.42;99255.13;4938870;28;20220;-94
2022/09/09 08:58:33;;;;;;;2.30;0.88;;;;;;;23.55;63.34;99249.84;4915954;28;20274;-94
2022/09/09 09:01:09;;;;;;;2.97;1.00;;;;;;;24.08;63.27;99249.72;4926344;28;20232;-94
2022/09/09 09:04:02;;;;;;;1.52;1.00;;;;;;;24.66;61.17;99248.59;4954247;28;20242;-94
2022/09/09 09:06:29;;;;;;;1.60;1.20;;;;;;;24.76;60.11;99251.81;4957425;28;20229;-96
2022/09/09 09:09:27;;;;;;;1.73;1.23;;;;;;;25.26;57.82;99237.59;4948563;28;20233;-92
2022/09/09 09:12:02;;;;;;;1.45;1.23;;;;;;;25.11;57.46;99232.63;4941148;29;20217;-95
2022/09/09 09:14:35;;;;;;;1.85;1.00;;;;;;;25.31;56.42;99230.03;4923600;29;20314;-94
2022/09/09 09:17:18;;;;;;;1.38;1.10;;;;;;;25.17;53.74;99229.41;4938820;29;20259;-95
2022/09/09 09:19:47;;;;;;;2.45;0.80;;;;;;;24.81;55.21;99220.72;4940852;28;20232;-94
2022/09/09 09:22:25;;;;;;;1.63;0.80;;;;;;;24.41;55.39;99222.78;4952799;28;20220;-94
2022/09/09 09:25:11;;;;;;;0.95;0.85;;;;;;;24.84;56.95;99217.31;4942704;28;20228;-94
2022/09/09 09:27:54;;;;;;;1.02;0.90;;;;;;;25.27;55.51;99218.09;4926893;28;20235;-94
2022/09/09 09:30:25;;;;;;;2.55;1.00;;;;;;;25.50;54.63;99217.88;4943663;28;20289;-94
2022/09/09 09:33:21;;;;;;;0.75;0.70;;;;;;;24.90;55.32;99211.41;4948106;29;20326;-94
2022/09/09 09:35:50;;;;;;;1.80;0.90;;;;;;;25.32;54.08;99203.41;4939321;28;20702;-94
2022/09/09 09:38:23;;;;;;;0.85;0.70;;;;;;;25.62;53.43;99202.34;4941942;28;20232;-94
2022/09/09 09:41:10;;;;;;;1.48;0.80;;;;;;;25.84;50.72;99199.38;4925515;29;20259;-94
2022/09/09 09:43:40;;;;;;;2.75;0.80;;;;;;;25.60;51.34;99204.66;4943585;28;20279;-94
2022/09/09 09:46:25;;;;;;;1.10;0.80;;;;;;;25.35;51.50;99210.97;4923651;28;20232;-93
2022/09/09 09:49:02;;;;;;;2.65;0.77;;;;;;;24.99;51.22;99197.69;4917250;28;20236;-94
2022/09/09 09:51:32;;;;;;;1.75;0.70;;;;;;;24.76;53.02;99194.28;4926448;28;20282;-94
2022/09/09 09:54:09;;;;;;;2.28;0.98;;;;;;;25.13;50.92;99198.28;4932953;28;20325;-94
2022/09/09 09:56:38;;;;;;;0.80;0.60;;;;;;;25.18;52.07;99200.88;4915410;28;20229;-94
2022/09/09 09:59:05;;;;;;;0.80;0.60;;;;;;;25.75;51.34;99195.06;4941635;28;20334;-94
2022/09/09 10:01:50;;;;;;;0.93;0.55;;;;;;;26.51;49.76;99192.97;4925023;28;20241;-95
2022/09/09 10:04:23;;;;;;;1.08;0.60;;;;;;;26.90;46.88;99188.16;4944076;28;20231;-93
2022/09/09 10:06:52;;;;;;;1.63;0.68;;;;;;;26.76;46.13;99187.63;4950790;28;20260;-94
2022/09/09 10:09:25;;;;;;;2.03;0.80;;;;;;;26.38;47.23;99191.31;4968195;28;20239;-93
2022/09/09 10:12:07;;;;;;;1.63;0.70;;;;;;;25.89;46.54;99181.13;4943984;28;20232;-94
2022/09/09 10:14:43;;;;;;;1.65;0.80;;;;;;;25.84;48.13;99195.81;4961692;28;20250;-94
2022/09/09 10:17:23;;;;;;;0.70;0.60;;;;;;;26.32;47.01;99187.16;4949475;29;20236;-94
2022/09/09 10:20:09;;;;;;;0.98;0.70;;;;;;;25.97;47.72;99185.75;4925987;29;20328;-94
2022/09/09 10:22:39;;;;;;;1.15;0.80;;;;;;;26.66;47.64;99178.66;4957792;28;20231;-94
2022/09/09 10:25:15;;;;;;;1.33;0.80;;;;;;;26.73;47.65;99183.63;4945325;28;20233;-94
2022/09/09 10:28:09;;;;;;;1.10;0.70;;;;;;;27.45;46.01;99183.03;4942414;28;20235;-94
2022/09/09 10:30:54;;;;;;;1.20;0.75;;;;;;;27.65;45.84;99180.56;4960017;28;20228;-94
2022/09/09 10:33:58;;;;;;;0.93;0.75;;;;;;;27.92;44.35;99191.69;4947082;28;20240;-94
2022/09/09 10:36:26;;;;;;;2.97;0.82;;;;;;;28.02;44.18;99193.19;4949452;28;20227;-93
2022/09/09 10:38:57;;;;;;;1.48;0.75;;;;;;;28.00;44.02;99198.22;4931820;28;20233;-94
2022/09/09 10:41:26;;;;;;;2.53;0.95;;;;;;;28.22;43.42;99181.28;4952602;28;20276;-94
2022/09/09 10:44:18;;;;;;;2.47;0.88;;;;;;;27.69;44.84;99181.50;4938161;28;20244;-95
2022/09/09 10:47:16;;;;;;;1.50;0.90;;;;;;;27.38;46.44;99176.50;4952105;28;20240;-95
2022/09/09 10:49:52;;;;;;;1.90;0.90;;;;;;;27.77;43.92;99170.38;4959792;28;20276;-94
2022/09/09 10:52:33;;;;;;;1.17;0.77;;;;;;;27.91;43.48;99170.81;4957466;28;20236;-94
2022/09/09 10:55:11;;;;;;;2.05;0.80;;;;;;;27.82;45.02;99166.56;4944477;28;20326;-94
2022/09/09 10:57:52;;;;;;;2.38;0.90;;;;;;;27.06;45.78;99156.16;4938745;28;20291;-94
2022/09/09 11:00:20;;;;;;;0.90;0.75;;;;;;;27.23;46.48;99146.91;4943914;28;20236;-94
2022/09/09 11:02:51;;;;;;;1.10;0.90;;;;;;;27.52;45.24;99157.75;4949334;28;20251;-94
2022/09/09 11:05:28;;;;;;;2.17;0.90;;;;;;;27.84;43.96;99162.34;4958801;28;20229;-93
2022/09/09 11:07:58;;;;;;;2.22;0.90;;;;;;;28.29;43.46;99159.44;4951094;28;20240;-94
2022/09/09 11:10:40;;;;;;;1.30;1.00;;;;;;;28.06;43.49;99141.78;4943426;28;20237;-94
2022/09/09 11:13:31;;;;;;;1.13;0.93;;;;;;;28.60;43.49;99150.53;4938961;28;20320;-94
2022/09/09 11:16:21;;;;;;;1.58;0.90;;;;;;;28.99;43.83;99150.81;4935208;28;20255;-95
2022/09/09 11:18:47;;;;;;;1.38;1.05;;;;;;;29.13;41.79;99145.69;4929069;29;20720;-95
2022/09/09 11:21:37;;;;;;;1.85;0.70;;;;;;;29.12;41.07;99149.59;4951385;28;20224;-94
2022/09/09 11:24:32;;;;;;;1.92;1.00;;;;;;;29.00;39.68;99152.41;4941152;28;20228;-94
2022/09/09 11:27:05;;;;;;;0.88;0.80;;;;;;;29.06;40.11;99156.53;4912066;28;20241;-95
2022/09/09 11:29:53;;;;;;;1.52;0.80;;;;;;;29.11;39.43;99159.84;4944176;28;20239;-94
2022/09/09 11:32:35;;;;;;;1.30;0.80;;;;;;;29.21;40.21;99151.03;4938645;28;20268;-95
2022/09/09 11:35:32;;;;;;;1.10;0.90;;;;;;;29.28;40.03;99147.66;4949645;29;20299;-94
2022/09/09 11:38:23;;;;;;;1.05;0.77;;;;;;;29.17;41.14;99141.06;4932510;28;20696;-95
2022/09/09 11:41:02;;;;;;;1.10;0.80;;;;;;;29.25;41.91;99146.44;4950358;29;20225;-94
2022/09/09 11:43:47;;;;;;;2.05;0.80;;;;;;;29.24;42.18;99138.50;4943273;28;20225;-95
2022/09/09 11:46:17;;;;;;;2.75;1.10;;;;;;;29.04;42.47;99139.53;4938986;29;20233;-95
2022/09/09 11:48:46;;;;;;;2.50;1.13;;;;;;;28.93;41.53;99136.47;4924631;29;20692;-95
2022/09/09 11:51:18;;;;;;;1.58;0.65;;;;;;;29.13;41.31;99140.16;4924537;28;20238;-94
2022/09/09 11:53:49;;;;;;;0.98;0.80;;;;;;;29.08;41.83;99140.41;4958422;28;20228;-94
2022/09/09 11:56:26;;;;;;;2.53;0.90;;;;;;;27.44;44.18;99125.59;4934939;28;20229;-94
2022/09/09 11:59:05;;;;;;;2.08;0.82;;;;;;;26.50;46.14;99130.16;4952094;28;20232;-94
2022/09/09 12:01:32;;;;;;;3.25;1.10;;;;;;;26.51;45.53;99126.25;4960836;28;20272;-94